Time;durP1;ratioP1;P1;durP2;ratioP2;P2;SDS_P1;SDS_P2;PMS_P1;PMS_P2;Temp;Humidity;BMP_temperature;BMP_pressure;BME280_temperature;BME280_humidity;BME280_pressure;Samples;Min_cycle;Max_cycle;Signal;HPM_P1;HPM_P2
2022/05/04 00:01:56;;;;;;;14.35;8.20;;;;;;;19.48;45.55;102153.88;5064775;28;20171;-49
2022/05/04 00:04:23;;;;;;;15.23;9.38;;;;;;;19.48;45.47;102163.78;5069353;28;20521;-46
2022/05/04 00:06:50;;;;;;;15.38;9.13;;;;;;;19.47;45.90;102159.38;5072753;28;20044;-48
2022/05/04 00:09:17;;;;;;;13.90;8.25;;;;;;;19.46;45.69;102160.38;5069682;28;20040;-47
2022/05/04 00:11:44;;;;;;;14.20;7.88;;;;;;;19.45;45.75;102155.97;5068232;28;20048;-50
2022/05/04 00:14:11;;;;;;;13.45;7.93;;;;;;;19.46;46.32;102160.38;5072089;28;20075;-48
2022/05/04 00:16:37;;;;;;;14.23;8.45;;;;;;;19.43;45.98;102158.78;5064085;28;20048;-50
2022/05/04 00:19:04;;;;;;;14.43;8.30;;;;;;;19.43;46.08;102156.09;5070330;28;20048;-51
2022/05/04 00:21:31;;;;;;;12.38;7.80;;;;;;;19.42;45.73;102161.63;5072848;28;20056;-48
2022/05/04 00:23:57;;;;;;;12.60;7.75;;;;;;;19.42;45.96;102153.56;5067111;28;20056;-47
2022/05/04 00:26:24;;;;;;;13.73;8.00;;;;;;;19.40;45.72;102152.81;5070715;28;20036;-48
2022/05/04 00:28:50;;;;;;;11.95;7.50;;;;;;;19.40;46.23;102160.88;5069939;28;20489;-53
2022/05/04 00:31:17;;;;;;;11.93;7.10;;;;;;;19.39;45.94;102153.81;5070919;28;20052;-52
2022/05/04 00:33:44;;;;;;;13.82;7.90;;;;;;;19.37;46.41;102156.59;5069567;28;20343;-53
2022/05/04 00:36:10;;;;;;;12.23;7.28;;;;;;;19.37;46.04;102156.59;5065255;28;20131;-50
2022/05/04 00:38:37;;;;;;;12.50;7.68;;;;;;;19.37;45.67;102156.59;5063361;28;20777;-48
2022/05/04 00:41:04;;;;;;;12.60;6.90;;;;;;;19.36;45.98;102154.91;5065306;28;20059;-50
2022/05/04 00:43:30;;;;;;;11.60;6.85;;;;;;;19.36;46.06;102156.75;5066573;28;20549;-52
2022/05/04 00:45:57;;;;;;;11.35;6.50;;;;;;;19.35;46.19;102153.22;5067462;28;20168;-47
2022/05/04 00:48:23;;;;;;;13.15;6.70;;;;;;;19.35;46.41;102160.44;5067786;28;20386;-50
2022/05/04 00:50:51;;;;;;;11.55;7.05;;;;;;;19.34;45.78;102151.50;5064992;28;20036;-49
2022/05/04 00:53:20;;;;;;;12.25;6.70;;;;;;;19.34;45.98;102159.59;5062096;28;20289;-51
2022/05/04 00:55:47;;;;;;;10.88;6.45;;;;;;;19.33;46.25;102149.78;5067832;28;20033;-50
2022/05/04 01:01:02;;;;;;;11.75;6.85;;;;;;;19.34;46.59;102153.34;5065662;28;20063;-47
2022/05/04 01:03:29;;;;;;;14.32;6.68;;;;;;;19.33;46.50;102149.78;5064570;28;20340;-49
2022/05/04 01:05:55;;;;;;;10.20;6.30;;;;;;;19.33;46.40;102148.94;5067528;28;20036;-50
2022/05/04 01:08:22;;;;;;;11.27;6.22;;;;;;;19.31;46.01;102146.41;5065617;28;20320;-49
2022/05/04 01:10:49;;;;;;;11.68;6.30;;;;;;;19.32;46.38;102142.72;5066513;28;20046;-49
2022/05/04 01:13:18;;;;;;;10.63;6.20;;;;;;;19.33;45.98;102146.25;5059745;28;20047;-51
2022/05/04 01:15:45;;;;;;;9.50;5.70;;;;;;;19.33;46.20;102143.56;5062400;28;20041;-48
2022/05/04 01:18:12;;;;;;;11.63;6.65;;;;;;;19.33;46.16;102146.25;5064610;28;20131;-48
2022/05/04 01:20:39;;;;;;;10.65;5.60;;;;;;;19.32;45.70;102142.72;5068095;28;20055;-50
2022/05/04 01:23:05;;;;;;;11.10;6.05;;;;;;;19.35;46.13;102150.53;5064673;28;20042;-51
2022/05/04 01:25:32;;;;;;;10.00;5.70;;;;;;;19.37;45.98;102145.84;5061800;28;20035;-51
2022/05/04 01:28:00;;;;;;;9.55;5.85;;;;;;;19.37;46.00;102140.47;5065764;28;20074;-50
2022/05/04 01:30:26;;;;;;;9.02;5.47;;;;;;;19.39;46.15;102145.75;5068154;28;20098;-52
2022/05/04 01:32:53;;;;;;;10.52;5.70;;;;;;;19.38;45.61;102152.13;5066052;28;20146;-49
2022/05/04 01:35:19;;;;;;;10.57;5.43;;;;;;;19.37;45.94;102145.84;5061441;28;20040;-49
2022/05/04 01:37:46;;;;;;;9.07;5.10;;;;;;;19.37;46.16;102148.53;5046771;28;20049;-48
2022/05/04 01:40:13;;;;;;;9.95;5.28;;;;;;;19.37;45.93;102142.31;5064721;28;20051;-50
2022/05/04 01:42:39;;;;;;;10.35;5.18;;;;;;;19.40;45.90;102144.75;5062995;28;20135;-51
2022/05/04 01:45:08;;;;;;;8.65;5.10;;;;;;;19.41;46.18;102143.75;5066529;28;20429;-49
2022/05/04 01:47:36;;;;;;;8.98;5.18;;;;;;;19.42;45.82;102148.19;5062215;28;20032;-53
2022/05/04 01:50:03;;;;;;;9.07;5.13;;;;;;;19.42;46.05;102149.03;5066142;28;20075;-48
2022/05/04 01:52:30;;;;;;;8.30;4.55;;;;;;;19.44;45.33;102146.19;5066036;28;20080;-51
2022/05/04 01:54:59;;;;;;;8.88;4.55;;;;;;;19.44;45.87;102141.66;5062163;28;20431;-49
2022/05/04 01:57:25;;;;;;;10.02;4.68;;;;;;;19.45;46.15;102143.38;5065018;28;20040;-47
2022/05/04 01:59:52;;;;;;;8.35;4.90;;;;;;;19.46;45.94;102149.63;5068361;28;20789;-47
2022/05/04 02:02:19;;;;;;;7.30;4.18;;;;;;;19.47;45.56;102140.56;5065070;28;20040;-47
2022/05/04 02:04:46;;;;;;;8.98;4.95;;;;;;;19.49;45.59;102146.66;5062853;28;20045;-48
2022/05/04 02:07:13;;;;;;;8.65;4.70;;;;;;;19.50;45.38;102137.63;5065694;28;20055;-48
2022/05/04 02:09:40;;;;;;;7.97;4.20;;;;;;;19.51;45.29;102139.31;5068795;28;20055;-48
2022/05/04 02:12:07;;;;;;;7.65;4.43;;;;;;;19.51;45.37;102131.25;5066281;28;20416;-51
2022/05/04 02:14:34;;;;;;;8.48;4.63;;;;;;;19.52;45.34;102121.34;5065554;28;20127;-49
2022/05/04 02:17:00;;;;;;;9.13;4.47;;;;;;;19.52;45.73;102127.56;5063038;28;20051;-48
2022/05/04 02:19:27;;;;;;;7.13;4.53;;;;;;;19.52;45.95;102132.94;5065745;28;20052;-50
2022/05/04 02:21:54;;;;;;;6.85;4.25;;;;;;;19.53;45.30;102131.09;5066343;28;20061;-50
2022/05/04 02:24:20;;;;;;;7.28;4.15;;;;;;;19.53;45.53;102121.19;5062535;28;20068;-50
2022/05/04 02:26:47;;;;;;;6.90;4.10;;;;;;;19.54;46.07;102128.31;5066475;28;20689;-51
2022/05/04 02:29:13;;;;;;;6.85;3.75;;;;;;;19.54;45.67;102122.94;5063874;28;20062;-49
2022/05/04 02:31:40;;;;;;;8.50;4.10;;;;;;;19.55;45.34;102121.94;5062474;28;20148;-48
2022/05/04 02:34:07;;;;;;;8.40;4.22;;;;;;;19.56;45.27;102123.63;5065613;28;20716;-51
2022/05/04 02:39:18;;;;;;;7.22;3.65;;;;;;;19.56;45.79;102120.09;5064445;28;20040;-47
2022/05/04 02:41:48;;;;;;;8.05;4.55;;;;;;;19.55;45.26;102116.56;5066450;28;20075;-48
2022/05/04 02:44:15;;;;;;;5.97;3.47;;;;;;;19.58;45.17;102118.97;5061191;28;20048;-50
2022/05/04 02:46:42;;;;;;;6.28;3.78;;;;;;;19.58;45.49;102113.59;5061759;28;20044;-49
2022/05/04 02:49:08;;;;;;;6.68;3.42;;;;;;;19.59;45.45;102109.06;5067219;28;20055;-50
2022/05/04 02:51:35;;;;;;;6.20;3.40;;;;;;;19.59;45.22;102103.69;5060903;28;20409;-48
2022/05/04 02:54:03;;;;;;;6.05;3.45;;;;;;;19.57;45.64;102103.81;5063390;28;20124;-49
2022/05/04 02:56:30;;;;;;;8.15;3.90;;;;;;;19.58;45.59;102110.91;5061996;28;20033;-47
2022/05/04 02:58:56;;;;;;;7.68;3.88;;;;;;;19.56;45.69;102104.81;5043645;28;20052;-47
2022/05/04 03:04:08;;;;;;;7.55;3.45;;;;;;;19.60;45.75;102102.69;5059000;28;20043;-49
2022/05/04 03:06:36;;;;;;;6.60;3.72;;;;;;;19.59;45.56;102099.16;5064397;28;20041;-52
2022/05/04 03:09:03;;;;;;;7.93;4.05;;;;;;;19.60;45.55;102108.94;5064463;28;20528;-50
2022/05/04 03:14:18;;;;;;;6.13;3.13;;;;;;;19.60;45.39;102108.94;5063904;28;20068;-48
2022/05/04 03:16:45;;;;;;;4.85;2.70;;;;;;;19.60;45.50;102114.31;5063713;28;20135;-51
2022/05/04 03:19:12;;;;;;;7.82;3.42;;;;;;;19.59;45.40;102103.69;5063631;28;20048;-47
2022/05/04 03:21:39;;;;;;;7.35;3.42;;;;;;;19.57;45.41;102101.13;5063776;28;20604;-52
2022/05/04 03:24:06;;;;;;;7.07;3.75;;;;;;;19.58;45.39;102105.53;5061185;28;20063;-48
2022/05/04 03:26:32;;;;;;;6.38;3.63;;;;;;;19.56;45.50;102104.81;5061586;28;20131;-51
2022/05/04 03:28:59;;;;;;;6.80;3.38;;;;;;;19.55;45.21;102100.41;5060936;28;20048;-48
2022/05/04 03:31:26;;;;;;;4.97;3.20;;;;;;;19.55;45.27;102111.16;5062951;28;20143;-52
2022/05/04 03:33:53;;;;;;;6.13;2.92;;;;;;;19.54;45.58;102106.78;5060714;28;20105;-51
2022/05/04 03:36:20;;;;;;;7.55;3.35;;;;;;;19.53;45.24;102106.91;5061010;28;20053;-52
2022/05/04 03:38:46;;;;;;;7.05;3.55;;;;;;;19.51;45.40;102109.72;5061312;28;20053;-50
2022/05/04 03:41:13;;;;;;;5.38;3.10;;;;;;;19.51;45.60;102112.41;5057200;28;20063;-51
2022/05/04 03:43:40;;;;;;;6.60;3.28;;;;;;;19.51;45.26;102116.94;5063909;28;20045;-52
2022/05/04 03:46:15;;;;;;;5.82;3.30;;;;;;;19.49;45.80;102104.47;5061586;28;20051;-52
2022/05/04 03:48:43;;;;;;;5.63;3.15;;;;;;;19.49;45.89;102101.78;5061621;28;20083;-48
2022/05/04 03:51:10;;;;;;;6.07;3.05;;;;;;;19.49;45.90;102095.56;5061315;28;20051;-50
2022/05/04 03:53:37;;;;;;;8.05;2.83;;;;;;;19.48;45.48;102105.47;5060036;28;20147;-50
2022/05/04 03:56:04;;;;;;;5.63;2.65;;;;;;;19.47;45.82;102098.38;5061655;28;20458;-52
2022/05/04 03:58:30;;;;;;;5.40;2.72;;;;;;;19.46;46.00;102104.75;5060886;28;20070;-50
2022/05/04 04:00:57;;;;;;;7.90;3.00;;;;;;;19.48;45.98;102104.63;5059710;28;20450;-49
2022/05/04 04:03:24;;;;;;;6.78;2.97;;;;;;;19.48;46.24;102102.78;5059947;28;20044;-52
2022/05/04 04:05:50;;;;;;;8.95;3.00;;;;;;;19.50;46.30;102097.28;5063978;28;20050;-53
2022/05/04 04:08:17;;;;;;;6.45;3.17;;;;;;;19.51;46.24;102101.66;5063562;28;20051;-52
2022/05/04 04:10:43;;;;;;;12.15;3.03;;;;;;;19.53;45.63;102101.53;5065797;28;20044;-52
2022/05/04 04:13:10;;;;;;;11.38;4.10;;;;;;;19.52;45.86;102103.38;5068321;28;20127;-50
2022/05/04 04:15:37;;;;;;;6.82;2.92;;;;;;;19.52;45.67;102097.13;5064224;28;20051;-52
2022/05/04 04:18:03;;;;;;;5.32;2.80;;;;;;;19.50;45.58;102091.91;5064862;28;20155;-49
2022/05/04 04:23:15;;;;;;;7.32;3.08;;;;;;;19.50;45.92;102089.22;5060626;28;20047;-52
2022/05/04 04:25:42;;;;;;;6.72;3.35;;;;;;;19.48;45.82;102100.09;5066897;28;20131;-52
2022/05/04 04:28:09;;;;;;;8.80;3.80;;;;;;;19.47;45.33;102094.84;5070678;28;20047;-50
2022/05/04 04:30:37;;;;;;;10.60;3.95;;;;;;;19.46;45.66;102095.84;5068465;28;20123;-50
2022/05/04 04:33:05;;;;;;;7.60;3.63;;;;;;;19.45;45.76;102096.81;5067171;28;20036;-51
2022/05/04 04:35:33;;;;;;;7.47;4.07;;;;;;;19.45;45.84;102094.97;5068192;28;20140;-48
2022/05/04 04:38:00;;;;;;;9.63;3.97;;;;;;;19.43;45.53;102096.94;5068667;28;20105;-51
2022/05/04 04:40:27;;;;;;;6.57;3.95;;;;;;;19.42;45.24;102095.25;5070889;28;20128;-52
2022/05/04 04:42:53;;;;;;;6.30;3.50;;;;;;;19.42;45.77;102100.63;5069315;28;20047;-52
2022/05/04 04:45:20;;;;;;;6.85;3.72;;;;;;;19.40;45.94;102096.34;5068915;28;20047;-52
2022/05/04 04:47:47;;;;;;;8.90;4.15;;;;;;;19.38;45.75;102099.19;5070389;28;20044;-52
2022/05/04 04:50:14;;;;;;;10.70;4.57;;;;;;;19.39;45.52;102102.72;5066525;28;20040;-52
2022/05/04 04:52:40;;;;;;;8.75;4.55;;;;;;;19.38;46.12;102098.34;5069503;28;20111;-52
2022/05/04 04:55:08;;;;;;;7.78;4.55;;;;;;;19.38;45.65;102098.34;5069132;28;20406;-50
2022/05/04 04:57:34;;;;;;;6.95;4.03;;;;;;;19.38;45.51;102103.72;5066054;28;20040;-50
2022/05/04 05:00:01;;;;;;;8.43;4.68;;;;;;;19.39;45.85;102100.88;5068643;28;20136;-50
2022/05/04 05:02:27;;;;;;;10.20;4.60;;;;;;;19.39;45.53;102100.88;5069458;28;20902;-51
2022/05/04 05:04:54;;;;;;;8.27;4.90;;;;;;;19.40;45.85;102107.13;5065408;28;20690;-49
2022/05/04 05:07:21;;;;;;;7.72;4.85;;;;;;;19.40;45.58;102105.28;5067672;28;20082;-50
2022/05/04 05:09:48;;;;;;;9.63;5.10;;;;;;;19.42;45.68;102105.16;5067289;28;20435;-52
2022/05/04 05:12:16;;;;;;;10.80;4.63;;;;;;;19.42;45.36;102105.16;5070920;28;20043;-50
2022/05/04 05:17:28;;;;;;;9.45;4.63;;;;;;;19.43;45.69;102106.84;5070638;28;20131;-50
2022/05/04 05:19:55;;;;;;;9.20;4.70;;;;;;;19.43;45.72;102106.84;5067741;28;20151;-52
2022/05/04 05:22:22;;;;;;;9.15;4.57;;;;;;;19.43;45.28;102106.84;5068555;28;20048;-51
2022/05/04 05:24:48;;;;;;;7.65;4.47;;;;;;;19.43;44.98;102109.53;5070189;28;20048;-51
2022/05/04 05:27:15;;;;;;;14.52;5.47;;;;;;;19.41;45.57;102109.66;5068690;28;20102;-52
2022/05/04 05:29:41;;;;;;;6.60;4.18;;;;;;;19.40;45.63;102099.91;5067466;28;20494;-49
2022/05/04 05:32:08;;;;;;;7.50;4.65;;;;;;;19.38;45.60;102098.34;5065584;28;20060;-51
2022/05/04 05:34:35;;;;;;;7.65;4.80;;;;;;;19.36;45.65;102105.66;5066877;28;20048;-51
2022/05/04 05:37:01;;;;;;;7.60;4.60;;;;;;;19.35;45.46;102099.44;5068081;28;20076;-52
2022/05/04 05:39:28;;;;;;;6.93;4.38;;;;;;;19.35;45.18;102099.44;5064514;28;20442;-51
2022/05/04 05:41:54;;;;;;;8.48;4.65;;;;;;;19.35;45.67;102107.50;5070514;28;20072;-51
2022/05/04 05:44:21;;;;;;;8.88;4.57;;;;;;;19.35;45.08;102103.97;5064597;28;20117;-48
2022/05/04 05:46:48;;;;;;;6.68;4.38;;;;;;;19.35;45.50;102107.50;5068167;28;20072;-49
2022/05/04 05:49:14;;;;;;;7.40;4.15;;;;;;;19.36;45.10;102105.66;5067211;28;20041;-48
2022/05/04 05:51:41;;;;;;;7.85;4.53;;;;;;;19.36;45.12;102105.66;5069871;28;20060;-50
2022/05/04 05:54:07;;;;;;;7.13;4.20;;;;;;;19.35;45.42;102109.34;5071341;28;20420;-51
2022/05/04 05:56:34;;;;;;;7.15;4.10;;;;;;;19.33;45.42;102112.16;5070237;28;20048;-50
2022/05/04 05:59:00;;;;;;;8.60;4.20;;;;;;;19.34;44.85;102102.28;5071754;28;20436;-50
2022/05/04 06:01:27;;;;;;;7.45;4.25;;;;;;;19.34;45.20;102105.81;5068311;28;20112;-49
2022/05/04 06:03:54;;;;;;;8.13;4.20;;;;;;;19.34;45.51;102102.28;5070951;28;20446;-49
2022/05/04 06:06:21;;;;;;;9.05;4.38;;;;;;;19.33;45.63;102105.94;5071112;28;20041;-49
2022/05/04 06:08:47;;;;;;;11.68;4.60;;;;;;;19.33;45.36;102100.56;5067206;28;20054;-53
2022/05/04 06:11:14;;;;;;;7.43;4.47;;;;;;;19.32;44.97;102105.06;5068282;28;20079;-51
2022/05/04 06:13:40;;;;;;;8.07;4.28;;;;;;;19.31;45.29;102103.38;5046420;28;20036;-49
2022/05/04 06:16:07;;;;;;;7.05;3.72;;;;;;;19.32;44.90;102107.75;5068614;28;20048;-52
2022/05/04 06:18:33;;;;;;;7.65;3.90;;;;;;;19.31;45.15;102103.38;5065890;28;20100;-51
2022/05/04 06:21:00;;;;;;;6.60;4.45;;;;;;;19.31;45.29;102108.75;5069834;28;20617;-51
2022/05/04 06:23:27;;;;;;;5.10;3.60;;;;;;;19.31;45.19;102103.38;5065863;28;20416;-48
2022/05/04 06:25:53;;;;;;;6.70;4.10;;;;;;;19.31;45.59;102113.28;5064915;28;20079;-49
2022/05/04 06:28:20;;;;;;;6.13;3.63;;;;;;;19.30;45.54;102104.38;5069584;28;20128;-48
2022/05/04 06:36:16;;;;;;;6.15;4.00;;;;;;;19.34;45.13;102107.66;5065785;28;20040;-49
2022/05/04 06:38:43;;;;;;;7.00;3.95;;;;;;;19.32;45.00;102109.59;5068973;28;20079;-47
2022/05/04 06:41:10;;;;;;;6.85;3.67;;;;;;;19.33;45.22;102114.00;5069101;28;20144;-48
2022/05/04 06:43:36;;;;;;;8.35;4.03;;;;;;;19.33;44.83;102109.47;5067722;28;20044;-47
2022/05/04 06:46:03;;;;;;;7.30;3.67;;;;;;;19.34;45.28;102111.19;5068725;28;20056;-50
2022/05/04 06:48:30;;;;;;;7.15;3.50;;;;;;;19.35;45.21;102114.72;5064901;28;20044;-47
2022/05/04 06:50:56;;;;;;;5.78;3.22;;;;;;;19.36;45.08;102116.44;5069540;28;20431;-48
2022/05/04 06:53:23;;;;;;;9.38;3.72;;;;;;;19.36;45.01;102114.59;5065946;28;20405;-51
2022/05/04 06:55:49;;;;;;;7.03;3.90;;;;;;;19.37;44.83;102113.59;5066967;28;20487;-47
2022/05/04 06:58:16;;;;;;;6.95;3.70;;;;;;;19.38;44.92;102118.00;5067632;28;20058;-47
2022/05/04 07:00:45;;;;;;;6.32;3.35;;;;;;;19.39;44.85;102118.84;5065838;28;20298;-48
2022/05/04 07:03:12;;;;;;;6.15;3.45;;;;;;;19.38;45.08;102118.00;5069487;28;20348;-48
2022/05/04 07:05:39;;;;;;;6.25;3.25;;;;;;;19.39;44.53;102116.16;5067305;28;20392;-51
2022/05/04 07:08:06;;;;;;;5.50;3.35;;;;;;;19.40;45.14;102120.56;5067498;28;20081;-48
2022/05/04 07:10:34;;;;;;;5.82;3.42;;;;;;;19.40;45.17;102120.56;5064755;28;20072;-50
2022/05/04 07:13:00;;;;;;;7.75;3.30;;;;;;;19.40;44.91;102117.88;5049568;28;20066;-47
2022/05/04 07:15:27;;;;;;;5.15;2.95;;;;;;;19.40;44.79;102128.63;5065490;28;20135;-49
2022/05/04 07:17:56;;;;;;;5.15;3.20;;;;;;;19.40;44.23;102123.25;5069003;28;20037;-49
2022/05/04 07:20:22;;;;;;;6.85;2.97;;;;;;;19.42;44.74;102129.34;5065815;28;20052;-47
2022/05/04 07:22:49;;;;;;;4.55;2.55;;;;;;;19.42;44.99;102121.28;5066585;28;20102;-47
2022/05/04 07:25:16;;;;;;;7.00;2.78;;;;;;;19.43;44.79;102120.31;5067348;28;20060;-49
2022/05/04 07:27:42;;;;;;;5.63;2.72;;;;;;;19.44;44.66;102125.53;5061234;28;20090;-51
2022/05/04 07:30:10;;;;;;;4.97;2.63;;;;;;;19.45;44.87;102127.22;5068703;28;20055;-51
2022/05/04 07:32:36;;;;;;;4.63;2.45;;;;;;;19.45;44.32;102127.22;5067974;28;20045;-49
2022/05/04 07:35:05;;;;;;;8.73;3.45;;;;;;;19.46;44.29;102125.41;5067456;28;20048;-51
2022/05/04 07:37:32;;;;;;;5.45;2.88;;;;;;;19.47;44.76;102122.59;5067078;28;20040;-49
2022/05/04 07:42:50;;;;;;;4.20;2.58;;;;;;;19.48;44.22;102129.66;5066480;28;20075;-50
2022/05/04 07:45:17;;;;;;;4.30;2.80;;;;;;;19.49;44.38;102127.81;5070226;28;20060;-50
2022/05/04 07:47:44;;;;;;;5.55;2.83;;;;;;;19.50;44.91;102126.88;5064120;28;20171;-50
2022/05/04 07:50:11;;;;;;;4.93;2.60;;;;;;;19.49;44.26;102128.66;5068955;28;20335;-49
2022/05/04 07:52:39;;;;;;;5.80;2.80;;;;;;;19.49;44.84;102127.81;5066035;28;20131;-51
2022/05/04 07:55:06;;;;;;;4.93;2.78;;;;;;;19.50;44.16;102126.88;5065062;28;20075;-50
2022/05/04 07:57:33;;;;;;;6.97;2.42;;;;;;;19.50;44.85;102121.47;5066060;28;21548;-50
2022/05/04 08:05:41;;;;;;;4.97;2.47;;;;;;;19.55;44.69;102127.31;5069025;28;20045;-47
2022/05/04 08:08:08;;;;;;;4.30;2.28;;;;;;;19.57;44.96;102130.69;5069623;28;20427;-51
2022/05/04 08:10:35;;;;;;;9.75;2.72;;;;;;;19.58;44.89;102129.75;5067102;28;20048;-48
2022/05/04 08:13:01;;;;;;;9.75;2.45;;;;;;;19.61;44.56;102129.47;5065981;28;20052;-48
2022/05/04 08:15:30;;;;;;;5.43;2.10;;;;;;;19.64;44.60;102133.75;5068288;28;20427;-51
2022/05/04 08:17:58;;;;;;;6.53;2.30;;;;;;;19.66;44.46;102138.03;5071224;28;20345;-52
2022/05/04 08:20:26;;;;;;;6.85;2.28;;;;;;;19.69;44.25;102139.59;5071068;28;20428;-49
2022/05/04 08:22:52;;;;;;;5.53;2.38;;;;;;;19.70;44.88;102130.56;5071613;28;20131;-51
2022/05/04 08:25:19;;;;;;;4.28;2.17;;;;;;;19.73;44.83;102132.94;5073525;28;20058;-51
2022/05/04 08:27:46;;;;;;;5.63;2.63;;;;;;;19.74;44.73;102134.69;5071824;28;20043;-50
2022/05/04 08:30:12;;;;;;;9.32;2.40;;;;;;;19.77;44.63;102138.91;5071486;28;20049;-50
2022/05/04 08:32:39;;;;;;;5.28;2.63;;;;;;;19.77;44.84;102136.22;5072782;28;20048;-48
2022/05/04 08:35:06;;;;;;;6.65;1.98;;;;;;;19.79;44.48;102137.81;5068436;28;20040;-51
2022/05/04 08:37:32;;;;;;;6.72;2.60;;;;;;;19.79;44.17;102131.59;5068418;28;20139;-46
2022/05/04 08:39:59;;;;;;;6.10;2.45;;;;;;;19.80;44.77;102133.28;5071365;28;20044;-48
2022/05/04 08:42:27;;;;;;;5.88;2.20;;;;;;;19.81;44.69;102125.06;5068127;28;20135;-50
2022/05/04 08:44:57;;;;;;;5.38;2.20;;;;;;;19.83;44.34;102135.72;5070686;28;20056;-48
2022/05/04 08:47:28;;;;;;;6.22;2.50;;;;;;;19.84;44.26;102126.63;5067471;28;21742;-49
2022/05/04 08:49:55;;;;;;;6.97;2.58;;;;;;;19.84;44.68;102132.88;5065930;28;20076;-47
2022/05/04 08:52:22;;;;;;;7.32;2.10;;;;;;;19.86;44.49;102130.03;5070618;28;20043;-50
2022/05/04 08:54:49;;;;;;;5.93;2.40;;;;;;;19.87;43.88;102121.00;5065410;28;20489;-53
2022/05/04 08:57:16;;;;;;;4.20;2.47;;;;;;;19.87;44.21;102127.22;5062194;28;20133;-49
2022/05/04 08:59:45;;;;;;;5.60;2.30;;;;;;;19.90;44.46;102126.09;5069460;28;20136;-50
2022/05/04 09:02:12;;;;;;;3.72;2.08;;;;;;;19.90;44.64;102120.72;5070821;28;20048;-47
2022/05/04 09:04:42;;;;;;;3.05;1.92;;;;;;;19.92;44.29;102129.50;5071061;28;20055;-49
2022/05/04 09:07:26;;;;;;;4.45;1.75;;;;;;;19.93;44.59;102126.69;5068697;28;20037;-49
2022/05/04 09:09:53;;;;;;;7.28;2.20;;;;;;;19.95;44.68;102123.88;5069491;28;20052;-48
2022/05/04 09:12:23;;;;;;;5.28;2.33;;;;;;;19.97;44.62;102121.88;5068527;28;20064;-48
2022/05/04 09:14:50;;;;;;;3.92;2.03;;;;;;;19.97;43.99;102122.72;5069078;28;20062;-48
2022/05/04 09:17:17;;;;;;;4.68;2.17;;;;;;;19.99;44.61;102119.91;5072598;28;20098;-49
2022/05/04 09:22:42;;;;;;;4.18;2.10;;;;;;;20.03;44.22;102120.50;5068249;28;20527;-49
2022/05/04 09:25:17;;;;;;;4.20;2.03;;;;;;;20.05;44.25;102123.91;5068534;28;20049;-51
2022/05/04 09:27:45;;;;;;;2.60;1.92;;;;;;;20.05;43.79;102116.66;5068149;28;20090;-49
2022/05/04 09:30:12;;;;;;;2.15;1.65;;;;;;;20.07;44.36;102122.78;5072455;28;20043;-52
2022/05/04 09:32:40;;;;;;;3.03;1.70;;;;;;;20.09;44.46;102114.56;5067145;28;20124;-52
2022/05/04 09:35:14;;;;;;;3.60;1.75;;;;;;;20.10;44.26;102114.44;5071473;28;20045;-51
2022/05/04 09:45:56;;;;;;;3.40;1.70;;;;;;;20.25;43.63;102105.97;5068192;28;20135;-47
2022/05/04 09:48:35;;;;;;;4.70;2.30;;;;;;;20.27;44.14;102102.16;5068145;28;20041;-51
2022/05/04 09:51:05;;;;;;;5.22;2.15;;;;;;;20.33;43.88;102108.81;5068711;28;20643;-49
2022/05/04 09:53:33;;;;;;;4.00;2.00;;;;;;;20.35;44.01;102096.94;5068896;28;20423;-49
2022/05/04 09:56:01;;;;;;;4.57;1.90;;;;;;;20.38;43.70;102098.47;5070124;28;20045;-52
2022/05/04 09:58:29;;;;;;;8.30;2.38;;;;;;;20.41;43.38;102095.53;5065649;28;20054;-53
2022/05/04 10:00:57;;;;;;;7.47;2.35;;;;;;;20.44;43.63;102104.19;5067689;28;20199;-51
2022/05/04 10:03:25;;;;;;;6.28;2.20;;;;;;;20.47;44.23;102092.28;5068005;28;20532;-52
2022/05/04 10:05:54;;;;;;;15.88;2.63;;;;;;;20.50;44.26;102097.41;5071668;28;20357;-50
2022/05/04 10:08:22;;;;;;;12.65;3.33;;;;;;;20.51;44.19;102101.81;5063071;28;20039;-52
2022/05/04 10:10:50;;;;;;;13.07;3.58;;;;;;;20.54;44.10;102095.28;5066366;28;20063;-50
2022/05/04 10:13:18;;;;;;;15.70;4.53;;;;;;;20.55;43.41;102094.31;5050495;28;20350;-50
2022/05/04 10:15:50;;;;;;;16.75;4.15;;;;;;;20.57;43.57;102092.31;5068888;28;20123;-52
2022/05/04 10:18:24;;;;;;;14.70;4.45;;;;;;;20.58;43.55;102089.50;5070436;28;20041;-52
2022/05/04 10:21:01;;;;;;;24.75;4.50;;;;;;;20.58;42.89;102086.81;5070711;28;20416;-49
2022/05/04 10:23:37;;;;;;;22.90;4.70;;;;;;;20.60;43.56;102089.34;5068216;28;20052;-48
2022/05/04 10:26:04;;;;;;;21.80;5.78;;;;;;;20.61;42.97;102086.50;5069782;28;20135;-49
2022/05/04 10:28:37;;;;;;;16.25;4.75;;;;;;;20.63;43.08;102094.47;5070633;28;20133;-55
2022/05/04 10:31:10;;;;;;;24.08;5.93;;;;;;;20.65;43.17;102095.16;5064307;28;20126;-52
2022/05/04 10:33:37;;;;;;;;;;;;;;;20.66;43.30;102086.97;5065510;28;20048;-48
2022/05/04 10:36:29;;;;;;;13.60;4.10;;;;;;;20.70;42.75;102088.38;5067519;28;19916;-52
2022/05/04 10:38:57;;;;;;;15.07;3.97;;;;;;;20.72;42.58;102082.84;5069361;28;20048;-52
2022/05/04 10:41:35;;;;;;;16.50;4.35;;;;;;;20.74;42.96;102082.69;5069271;28;20119;-47
2022/05/04 10:44:03;;;;;;;15.38;5.10;;;;;;;20.77;43.26;102085.09;5069232;28;20038;-53
2022/05/04 10:46:31;;;;;;;10.85;3.92;;;;;;;20.77;42.82;102074.31;5065059;28;20094;-50
2022/05/04 10:49:02;;;;;;;13.80;4.10;;;;;;;20.79;43.19;102075.91;5068736;28;20044;-52
2022/05/04 10:51:31;;;;;;;14.65;4.70;;;;;;;20.81;42.82;102078.44;5067162;28;21147;-49
2022/05/04 10:54:08;;;;;;;16.67;4.75;;;;;;;20.83;42.50;102071.06;5066319;28;20127;-51
2022/05/04 10:56:43;;;;;;;9.40;3.40;;;;;;;20.84;42.81;102064.69;5069112;28;20143;-52
2022/05/04 10:59:11;;;;;;;15.63;4.25;;;;;;;20.86;42.47;102065.38;5065575;28;20075;-53
2022/05/04 11:01:39;;;;;;;10.95;3.65;;;;;;;20.87;42.38;102072.50;5065828;28;20079;-52
2022/05/04 11:04:09;;;;;;;11.50;3.75;;;;;;;20.88;42.50;102071.50;5063394;28;20052;-51
2022/05/04 11:06:43;;;;;;;19.15;4.05;;;;;;;20.89;42.89;102065.94;5065267;28;20078;-52
2022/05/04 11:09:15;;;;;;;10.57;3.20;;;;;;;20.90;42.30;102078.44;5066192;28;20049;-51
2022/05/04 11:11:45;;;;;;;10.57;3.00;;;;;;;20.91;42.46;102080.16;5064404;28;20737;-49
2022/05/04 11:14:13;;;;;;;11.20;4.10;;;;;;;20.92;42.60;102071.06;5064545;28;20072;-51
2022/05/04 11:16:41;;;;;;;8.60;3.22;;;;;;;20.94;42.97;102073.59;5067653;28;20628;-53
2022/05/04 11:19:11;;;;;;;9.57;2.95;;;;;;;20.97;42.68;102076.03;5068394;28;20040;-52
2022/05/04 11:21:38;;;;;;;7.65;2.70;;;;;;;20.98;42.76;102066.94;5067200;28;20075;-49
2022/05/04 11:24:08;;;;;;;12.10;3.58;;;;;;;20.99;42.69;102070.50;5065922;28;20127;-52
2022/05/04 11:26:41;;;;;;;8.02;3.08;;;;;;;21.00;43.06;102073.03;5066418;28;20068;-54
2022/05/04 11:29:12;;;;;;;9.73;3.55;;;;;;;21.02;42.62;102071.03;5063396;28;20175;-55
2022/05/04 11:31:47;;;;;;;8.57;3.15;;;;;;;21.03;42.82;102070.06;5068666;28;20050;-54
2022/05/04 11:34:15;;;;;;;6.07;2.78;;;;;;;21.05;42.72;102067.22;5062370;28;20036;-54
2022/05/04 11:36:47;;;;;;;8.35;2.80;;;;;;;21.06;42.90;102063.53;5066880;28;20383;-55
2022/05/04 11:39:19;;;;;;;9.10;3.28;;;;;;;21.07;43.04;102059.84;5068201;28;20047;-54
2022/05/04 11:41:47;;;;;;;5.25;2.70;;;;;;;21.09;42.93;102068.63;5068085;28;20141;-52
2022/05/04 11:44:18;;;;;;;7.55;2.95;;;;;;;21.10;42.78;102062.22;5066653;28;20052;-53
2022/05/04 11:46:47;;;;;;;8.80;3.10;;;;;;;21.11;42.75;102066.66;5065716;28;20072;-52
2022/05/04 11:49:14;;;;;;;9.90;2.53;;;;;;;21.10;42.61;102065.78;5066346;28;20060;-54
2022/05/04 11:51:41;;;;;;;6.15;2.30;;;;;;;21.09;43.20;102055.16;5068671;28;20143;-52
2022/05/04 11:54:08;;;;;;;7.82;3.13;;;;;;;21.09;42.81;102056.00;5064301;28;20040;-51
2022/05/04 11:56:36;;;;;;;5.45;2.40;;;;;;;21.09;42.99;102057.84;5067069;28;20450;-54
2022/05/04 11:59:03;;;;;;;7.65;3.08;;;;;;;21.10;42.83;102062.22;5066969;28;20040;-51
2022/05/04 12:01:30;;;;;;;11.35;3.95;;;;;;;21.10;42.43;102052.28;5066965;28;20410;-53
2022/05/04 12:03:57;;;;;;;7.68;3.70;;;;;;;21.11;42.79;102053.19;5067311;28;20312;-53
2022/05/04 12:06:25;;;;;;;9.98;3.75;;;;;;;21.13;42.82;102054.72;5066449;28;20404;-51
2022/05/04 12:08:52;;;;;;;10.23;3.17;;;;;;;21.14;42.83;102053.72;5062013;28;20043;-54